EET,Max TemperatureF,Mean TemperatureF,Min TemperatureF,Max Dew PointF,MeanDew PointF,Min DewpointF,Max Humidity, Mean Humidity, Min Humidity, Max Sea Level PressureIn, Mean Sea Level PressureIn, Min Sea Level PressureIn, Max VisibilityMiles, Mean VisibilityMiles, Min VisibilityMiles, Max Wind SpeedMPH, Mean Wind SpeedMPH, Max Gust SpeedMPH,PrecipitationIn, CloudCover, Events, WindDirDegrees
2013-1-1,68,57,46,52,47,41,88,71,31,30.12,30.08,30.04,6,6,6,12,2,,0.00,1,,213
2013-1-2,68,57,46,59,52,45,93,80,64,30.25,30.18,30.12,6,6,4,15,4,,0.00,3,Rain,266
2013-1-3,67,58,48,59,53,48,94,80,51,30.30,30.25,30.21,6,6,6,8,2,,0.00,2,,1
2013-1-4,67,56,46,58,52,46,100,82,64,30.21,30.11,30.06,6,6,2,10,3,,0.00,2,,291
2013-1-5,64,57,50,55,51,46,94,80,63,30.06,29.97,29.89,6,6,4,18,7,,0.31,3,Rain,269
2013-1-6,64,58,52,54,51,48,94,76,52,29.89,29.79,29.68,6,6,4,28,18,,0.04,3,Rain,248
2013-1-7,64,58,51,52,47,41,94,67,38,29.96,29.84,29.65,6,6,4,29,20,,0.20,4,Rain,281
2013-1-8,56,52,49,54,48,32,94,82,44,29.95,29.89,29.83,6,5,2,21,14,,0.31,6,Rain-Thunderstorm,289
2013-1-9,55,52,48,48,43,37,94,71,48,30.15,30.05,29.95,6,6,6,23,15,,0.20,3,Rain,326
2013-1-10,53,50,48,46,43,36,93,73,45,30.24,30.17,30.09,6,6,6,16,10,,0.08,3,Rain,274
2013-1-11,60,51,42,51,47,41,100,82,63,30.30,30.24,30.21,6,6,6,7,3,,0.00,3,,175
2013-1-12,66,56,46,52,48,44,93,77,41,30.24,30.19,30.15,6,6,6,9,2,,0.00,3,,196
2013-1-13,68,57,46,55,51,46,100,80,58,30.24,30.19,30.15,6,6,6,9,3,,0.00,3,,315
2013-1-14,65,58,50,54,50,46,94,74,41,30.31,30.26,30.21,6,6,6,10,4,,0.00,1,,28
2013-1-15,66,58,51,54,51,48,94,77,52,30.28,30.23,30.18,6,6,6,12,6,,0.00,1,,67
2013-1-16,65,56,47,52,49,45,94,78,46,30.21,30.08,29.98,6,6,6,6,2,,0.00,5,,128
2013-1-17,67,56,44,54,49,43,94,78,45,30.09,30.05,30.01,6,6,4,9,2,,0.00,2,,297
2013-1-18,66,57,48,57,50,46,100,82,48,30.05,29.99,29.89,6,4,2,7,1,,0.00,,,181
2013-1-19,68,55,42,48,44,39,93,70,30,30.09,30.02,29.95,6,6,6,13,3,,0.00,,,210
2013-1-20,71,58,45,50,46,44,100,66,30,30.18,30.11,30.09,6,6,4,7,3,,0.00,,,133
2013-1-21,73,62,52,55,50,45,88,68,26,30.12,29.99,29.89,6,6,6,8,6,,0.00,,,89
2013-1-22,67,58,50,59,52,44,94,74,49,30.06,29.96,29.86,6,6,6,14,4,,0.00,2,,293
2013-1-23,69,58,48,57,50,36,94,73,28,30.15,30.11,30.06,6,5,2,9,2,,0.00,1,,263
2013-1-24,68,56,45,57,51,46,100,83,51,30.09,30.00,29.86,6,5,4,12,2,,0.00,,,100
2013-1-25,68,60,52,54,52,50,94,76,50,29.95,29.89,29.83,6,6,6,12,2,,0.00,1,,324
2013-1-26,69,57,45,50,44,37,94,65,21,29.95,29.89,29.83,6,6,4,13,3,,0.00,3,,212
2013-1-27,64,58,50,52,47,37,88,66,31,30.01,29.96,29.89,6,6,6,17,12,,0.00,3,,245
2013-1-28,63,54,45,50,47,42,94,81,51,29.98,29.94,29.89,6,6,4,21,5,,0.08,4,,200
2013-1-29,65,56,47,54,49,45,100,78,49,30.06,30.02,29.98,6,6,6,12,6,,0.00,3,,292
2013-1-30,57,50,44,54,48,41,94,86,72,30.01,29.93,29.86,6,6,6,21,7,,0.08,3,,248
2013-1-31,62,56,50,50,46,43,94,66,42,29.95,29.87,29.80,6,6,4,22,16,,0.28,4,Rain,306